sensor_id;sensor_type;location;lat;lon;timestamp;pressure;altitude;pressure_sealevel;temperature;humidity
77381;BME280;66439;50.106;10.996;2023-07-08T00:01:18;98932.94;;;20.03;44.32
77381;BME280;66439;50.106;10.996;2023-07-08T00:03:22;98940.46;;;19.98;44.31
77381;BME280;66439;50.106;10.996;2023-07-08T00:05:26;98931.63;;;19.97;44.34
77381;BME280;66439;50.106;10.996;2023-07-08T00:07:30;98932.46;;;19.95;44.37
77381;BME280;66439;50.106;10.996;2023-07-08T00:09:32;98926.52;;;19.90;44.40
77381;BME280;66439;50.106;10.996;2023-07-08T00:11:35;98922.70;;;19.83;44.53
77381;BME280;66439;50.106;10.996;2023-07-08T00:13:38;98929.82;;;19.80;44.96
77381;BME280;66439;50.106;10.996;2023-07-08T00:15:41;98931.95;;;19.79;44.93
77381;BME280;66439;50.106;10.996;2023-07-08T00:17:44;98922.18;;;19.76;44.95
77381;BME280;66439;50.106;10.996;2023-07-08T00:19:47;98919.42;;;19.68;44.86
77381;BME280;66439;50.106;10.996;2023-07-08T00:21:50;98920.45;;;19.61;45.11
77381;BME280;66439;50.106;10.996;2023-07-08T00:24:05;98928.72;;;19.60;44.94
77381;BME280;66439;50.106;10.996;2023-07-08T00:26:25;98929.59;;;19.60;44.96
77381;BME280;66439;50.106;10.996;2023-07-08T00:28:30;98920.20;;;19.58;45.07
77381;BME280;66439;50.106;10.996;2023-07-08T00:30:32;98919.01;;;19.51;45.13
77381;BME280;66439;50.106;10.996;2023-07-08T00:32:36;98920.30;;;19.41;45.40
77381;BME280;66439;50.106;10.996;2023-07-08T00:34:44;98924.73;;;19.35;45.56
77381;BME280;66439;50.106;10.996;2023-07-08T00:36:46;98926.31;;;19.32;45.69
77381;BME280;66439;50.106;10.996;2023-07-08T00:38:49;98931.19;;;19.33;45.66
77381;BME280;66439;50.106;10.996;2023-07-08T00:40:58;98943.97;;;19.35;45.76
77381;BME280;66439;50.106;10.996;2023-07-08T00:43:05;98931.72;;;19.33;45.77
77381;BME280;66439;50.106;10.996;2023-07-08T00:45:24;98935.92;;;19.28;45.80
77381;BME280;66439;50.106;10.996;2023-07-08T00:47:29;98938.06;;;19.25;46.16
77381;BME280;66439;50.106;10.996;2023-07-08T00:51:47;98925.79;;;19.22;46.02
77381;BME280;66439;50.106;10.996;2023-07-08T00:53:52;98926.92;;;19.16;46.22
77381;BME280;66439;50.106;10.996;2023-07-08T00:56:03;98935.54;;;19.12;46.45
77381;BME280;66439;50.106;10.996;2023-07-08T00:58:10;98940.08;;;19.06;46.50
77381;BME280;66439;50.106;10.996;2023-07-08T01:00:15;98944.98;;;18.99;46.63
77381;BME280;66439;50.106;10.996;2023-07-08T01:02:21;98938.30;;;18.94;46.55
77381;BME280;66439;50.106;10.996;2023-07-08T01:04:34;98939.02;;;18.91;46.79
77381;BME280;66439;50.106;10.996;2023-07-08T01:06:41;98936.27;;;18.89;46.69
77381;BME280;66439;50.106;10.996;2023-07-08T01:08:45;98930.79;;;18.87;46.92
77381;BME280;66439;50.106;10.996;2023-07-08T01:10:52;98935.79;;;18.85;46.78
77381;BME280;66439;50.106;10.996;2023-07-08T01:12:59;98932.08;;;18.83;46.94
77381;BME280;66439;50.106;10.996;2023-07-08T01:15:06;98935.62;;;18.80;47.17
77381;BME280;66439;50.106;10.996;2023-07-08T01:17:10;98939.91;;;18.79;47.16
77381;BME280;66439;50.106;10.996;2023-07-08T01:19:19;98941.39;;;18.74;47.40
77381;BME280;66439;50.106;10.996;2023-07-08T01:21:39;98933.81;;;18.69;47.61
77381;BME280;66439;50.106;10.996;2023-07-08T01:23:42;98928.23;;;18.68;47.59
77381;BME280;66439;50.106;10.996;2023-07-08T01:25:45;98924.80;;;18.67;47.79
77381;BME280;66439;50.106;10.996;2023-07-08T01:27:53;98924.13;;;18.66;48.00
77381;BME280;66439;50.106;10.996;2023-07-08T01:29:57;98915.66;;;18.61;47.87
77381;BME280;66439;50.106;10.996;2023-07-08T01:32:00;98912.54;;;18.57;47.96
77381;BME280;66439;50.106;10.996;2023-07-08T01:34:08;98917.11;;;18.53;48.12
77381;BME280;66439;50.106;10.996;2023-07-08T01:36:12;98914.55;;;18.50;48.22
77381;BME280;66439;50.106;10.996;2023-07-08T01:38:20;98916.25;;;18.46;48.37
77381;BME280;66439;50.106;10.996;2023-07-08T01:40:31;98910.42;;;18.42;48.47
77381;BME280;66439;50.106;10.996;2023-07-08T01:42:34;98907.44;;;18.37;48.42
77381;BME280;66439;50.106;10.996;2023-07-08T01:44:37;98911.48;;;18.35;48.60
77381;BME280;66439;50.106;10.996;2023-07-08T01:46:39;98910.98;;;18.33;48.51
77381;BME280;66439;50.106;10.996;2023-07-08T01:48:47;98914.44;;;18.29;48.55
77381;BME280;66439;50.106;10.996;2023-07-08T01:51:03;98917.35;;;18.27;48.73
77381;BME280;66439;50.106;10.996;2023-07-08T01:53:14;98922.70;;;18.30;48.57
77381;BME280;66439;50.106;10.996;2023-07-08T01:55:22;98919.85;;;18.32;48.58
77381;BME280;66439;50.106;10.996;2023-07-08T01:57:25;98921.27;;;18.31;48.55
77381;BME280;66439;50.106;10.996;2023-07-08T01:59:28;98918.08;;;18.28;48.57
77381;BME280;66439;50.106;10.996;2023-07-08T02:01:31;98922.87;;;18.26;48.54
77381;BME280;66439;50.106;10.996;2023-07-08T02:03:34;98924.93;;;18.27;48.59
77381;BME280;66439;50.106;10.996;2023-07-08T02:05:37;98928.39;;;18.28;48.50
77381;BME280;66439;50.106;10.996;2023-07-08T02:07:40;98926.78;;;18.24;48.54
77381;BME280;66439;50.106;10.996;2023-07-08T02:09:43;98929.83;;;18.21;48.63
77381;BME280;66439;50.106;10.996;2023-07-08T02:11:48;98927.98;;;18.18;48.83
77381;BME280;66439;50.106;10.996;2023-07-08T02:13:52;98923.90;;;18.17;48.82
77381;BME280;66439;50.106;10.996;2023-07-08T02:15:55;98924.52;;;18.14;48.87
77381;BME280;66439;50.106;10.996;2023-07-08T02:17:57;98928.20;;;18.11;49.00
77381;BME280;66439;50.106;10.996;2023-07-08T02:20:00;98929.61;;;18.11;48.94
77381;BME280;66439;50.106;10.996;2023-07-08T02:22:03;98928.33;;;18.11;49.09
77381;BME280;66439;50.106;10.996;2023-07-08T02:24:07;98933.75;;;18.10;49.16
77381;BME280;66439;50.106;10.996;2023-07-08T02:26:10;98939.20;;;18.08;49.13
77381;BME280;66439;50.106;10.996;2023-07-08T02:28:12;98956.55;;;18.07;49.18
77381;BME280;66439;50.106;10.996;2023-07-08T02:30:15;98964.98;;;18.08;49.24
77381;BME280;66439;50.106;10.996;2023-07-08T02:32:19;98970.55;;;18.09;49.30
77381;BME280;66439;50.106;10.996;2023-07-08T02:34:22;98959.13;;;18.09;49.34
77381;BME280;66439;50.106;10.996;2023-07-08T02:36:25;98957.84;;;18.07;49.18
77381;BME280;66439;50.106;10.996;2023-07-08T02:38:28;98964.73;;;18.05;49.08
77381;BME280;66439;50.106;10.996;2023-07-08T02:40:31;98967.52;;;18.05;49.27
77381;BME280;66439;50.106;10.996;2023-07-08T02:42:33;98966.66;;;18.02;49.18
77381;BME280;66439;50.106;10.996;2023-07-08T02:44:42;98965.58;;;17.99;49.28
77381;BME280;66439;50.106;10.996;2023-07-08T02:46:58;98963.88;;;17.96;49.16
77381;BME280;66439;50.106;10.996;2023-07-08T02:49:00;98964.66;;;17.95;49.13
77381;BME280;66439;50.106;10.996;2023-07-08T02:51:04;98963.02;;;17.96;49.26
77381;BME280;66439;50.106;10.996;2023-07-08T02:53:07;98964.63;;;17.96;49.31
77381;BME280;66439;50.106;10.996;2023-07-08T02:55:10;98965.04;;;17.95;49.17
77381;BME280;66439;50.106;10.996;2023-07-08T02:57:14;98961.20;;;17.92;49.33
77381;BME280;66439;50.106;10.996;2023-07-08T02:59:17;98959.02;;;17.87;49.36
77381;BME280;66439;50.106;10.996;2023-07-08T03:01:19;98958.16;;;17.81;49.56
77381;BME280;66439;50.106;10.996;2023-07-08T03:03:22;98959.65;;;17.79;49.63
77381;BME280;66439;50.106;10.996;2023-07-08T03:05:26;98958.52;;;17.76;49.88
77381;BME280;66439;50.106;10.996;2023-07-08T03:07:29;98960.75;;;17.76;50.09
77381;BME280;66439;50.106;10.996;2023-07-08T03:09:32;98958.90;;;17.74;50.05
77381;BME280;66439;50.106;10.996;2023-07-08T03:11:38;98961.24;;;17.70;50.10
77381;BME280;66439;50.106;10.996;2023-07-08T03:13:41;98961.21;;;17.65;50.20
77381;BME280;66439;50.106;10.996;2023-07-08T03:15:45;98963.27;;;17.61;50.47
77381;BME280;66439;50.106;10.996;2023-07-08T03:17:48;98964.51;;;17.53;50.77
77381;BME280;66439;50.106;10.996;2023-07-08T03:19:50;98962.48;;;17.45;50.82
77381;BME280;66439;50.106;10.996;2023-07-08T03:21:54;98963.79;;;17.37;51.13
77381;BME280;66439;50.106;10.996;2023-07-08T03:23:57;98963.34;;;17.32;51.25
77381;BME280;66439;50.106;10.996;2023-07-08T03:26:00;98964.27;;;17.29;51.23
77381;BME280;66439;50.106;10.996;2023-07-08T03:28:04;98965.33;;;17.30;51.17
77381;BME280;66439;50.106;10.996;2023-07-08T03:30:10;98959.30;;;17.28;51.24
77381;BME280;66439;50.106;10.996;2023-07-08T03:32:14;98960.94;;;17.29;51.23
77381;BME280;66439;50.106;10.996;2023-07-08T03:34:17;98965.91;;;17.31;51.20
77381;BME280;66439;50.106;10.996;2023-07-08T03:36:20;98962.73;;;17.30;51.19
77381;BME280;66439;50.106;10.996;2023-07-08T03:38:25;98964.56;;;17.30;51.22
77381;BME280;66439;50.106;10.996;2023-07-08T03:40:29;98966.70;;;17.31;51.25
77381;BME280;66439;50.106;10.996;2023-07-08T03:42:32;98969.28;;;17.34;51.31
77381;BME280;66439;50.106;10.996;2023-07-08T03:44:35;98971.19;;;17.32;51.06
77381;BME280;66439;50.106;10.996;2023-07-08T03:46:38;98980.41;;;17.33;51.23
77381;BME280;66439;50.106;10.996;2023-07-08T03:48:42;98984.14;;;17.27;51.34
77381;BME280;66439;50.106;10.996;2023-07-08T03:50:47;98984.92;;;17.21;51.37
77381;BME280;66439;50.106;10.996;2023-07-08T03:52:51;98987.73;;;17.17;51.39
77381;BME280;66439;50.106;10.996;2023-07-08T03:54:56;98991.13;;;17.12;51.72
77381;BME280;66439;50.106;10.996;2023-07-08T03:57:00;98992.05;;;17.04;51.92
77381;BME280;66439;50.106;10.996;2023-07-08T03:59:03;98992.21;;;17.02;51.95
77381;BME280;66439;50.106;10.996;2023-07-08T04:01:14;98989.55;;;17.04;52.11
77381;BME280;66439;50.106;10.996;2023-07-08T04:03:19;98991.57;;;17.01;52.27
77381;BME280;66439;50.106;10.996;2023-07-08T04:05:23;98989.60;;;16.93;52.65
77381;BME280;66439;50.106;10.996;2023-07-08T04:07:25;98990.27;;;16.86;52.77
77381;BME280;66439;50.106;10.996;2023-07-08T04:09:28;98994.90;;;16.80;52.92
77381;BME280;66439;50.106;10.996;2023-07-08T04:11:30;98999.15;;;16.79;53.04
77381;BME280;66439;50.106;10.996;2023-07-08T04:13:33;98998.17;;;16.78;53.10
77381;BME280;66439;50.106;10.996;2023-07-08T04:15:36;99001.14;;;16.79;52.97
77381;BME280;66439;50.106;10.996;2023-07-08T04:17:45;98996.83;;;16.80;53.11
77381;BME280;66439;50.106;10.996;2023-07-08T04:19:49;98994.67;;;16.83;53.02
77381;BME280;66439;50.106;10.996;2023-07-08T04:21:53;98994.98;;;16.86;53.01
77381;BME280;66439;50.106;10.996;2023-07-08T04:23:56;98992.95;;;16.87;53.12
77381;BME280;66439;50.106;10.996;2023-07-08T04:25:59;98994.24;;;16.90;53.04
77381;BME280;66439;50.106;10.996;2023-07-08T04:28:02;98993.02;;;16.94;53.11
77381;BME280;66439;50.106;10.996;2023-07-08T04:30:09;98997.36;;;16.99;53.15
77381;BME280;66439;50.106;10.996;2023-07-08T04:32:12;98996.42;;;17.03;52.83
77381;BME280;66439;50.106;10.996;2023-07-08T04:34:16;98997.84;;;17.08;52.91
77381;BME280;66439;50.106;10.996;2023-07-08T04:36:19;98999.66;;;17.10;52.87
77381;BME280;66439;50.106;10.996;2023-07-08T04:38:38;98997.03;;;17.05;53.02
77381;BME280;66439;50.106;10.996;2023-07-08T04:40:47;98997.96;;;17.01;53.21
77381;BME280;66439;50.106;10.996;2023-07-08T04:42:59;99000.66;;;17.01;53.14
77381;BME280;66439;50.106;10.996;2023-07-08T04:45:02;98998.50;;;17.02;53.23
77381;BME280;66439;50.106;10.996;2023-07-08T04:47:07;99002.23;;;17.07;53.12
77381;BME280;66439;50.106;10.996;2023-07-08T04:49:11;99003.88;;;17.08;52.97
77381;BME280;66439;50.106;10.996;2023-07-08T04:51:14;99004.23;;;17.10;52.95
77381;BME280;66439;50.106;10.996;2023-07-08T04:53:17;99001.45;;;17.14;53.02
77381;BME280;66439;50.106;10.996;2023-07-08T04:55:21;99008.24;;;17.15;52.91
77381;BME280;66439;50.106;10.996;2023-07-08T04:57:24;99004.76;;;17.21;52.83
77381;BME280;66439;50.106;10.996;2023-07-08T04:59:27;99009.98;;;17.30;52.56
77381;BME280;66439;50.106;10.996;2023-07-08T05:01:30;99011.47;;;17.36;52.30
77381;BME280;66439;50.106;10.996;2023-07-08T05:03:33;99008.52;;;17.39;52.11
77381;BME280;66439;50.106;10.996;2023-07-08T05:05:36;99004.70;;;17.44;52.08
77381;BME280;66439;50.106;10.996;2023-07-08T05:07:38;99004.71;;;17.48;51.82
77381;BME280;66439;50.106;10.996;2023-07-08T05:09:41;99005.77;;;17.51;51.71
77381;BME280;66439;50.106;10.996;2023-07-08T05:11:44;99006.77;;;17.54;51.63
77381;BME280;66439;50.106;10.996;2023-07-08T05:13:46;99010.45;;;17.57;51.45
77381;BME280;66439;50.106;10.996;2023-07-08T05:15:49;99005.51;;;17.62;51.41
77381;BME280;66439;50.106;10.996;2023-07-08T05:17:52;99007.03;;;17.64;51.36
77381;BME280;66439;50.106;10.996;2023-07-08T05:19:56;99010.81;;;17.68;51.25
77381;BME280;66439;50.106;10.996;2023-07-08T05:22:03;99011.55;;;17.74;51.16
77381;BME280;66439;50.106;10.996;2023-07-08T05:24:06;99008.96;;;17.79;51.01
77381;BME280;66439;50.106;10.996;2023-07-08T05:26:09;99010.52;;;17.82;50.97
77381;BME280;66439;50.106;10.996;2023-07-08T05:28:11;99006.39;;;17.87;50.92
77381;BME280;66439;50.106;10.996;2023-07-08T05:30:17;99004.79;;;17.90;50.98
77381;BME280;66439;50.106;10.996;2023-07-08T05:32:23;99009.54;;;17.94;50.77
77381;BME280;66439;50.106;10.996;2023-07-08T05:34:27;99014.77;;;17.96;51.08
77381;BME280;66439;50.106;10.996;2023-07-08T05:36:30;99013.19;;;17.97;50.92
77381;BME280;66439;50.106;10.996;2023-07-08T05:38:33;99016.66;;;18.02;50.79
77381;BME280;66439;50.106;10.996;2023-07-08T05:40:35;99016.69;;;18.07;50.66
77381;BME280;66439;50.106;10.996;2023-07-08T05:42:38;99014.57;;;18.11;50.46
77381;BME280;66439;50.106;10.996;2023-07-08T05:44:42;99010.64;;;18.15;50.62
77381;BME280;66439;50.106;10.996;2023-07-08T05:46:44;99009.78;;;18.17;50.34
77381;BME280;66439;50.106;10.996;2023-07-08T05:48:47;99010.10;;;18.19;50.32
77381;BME280;66439;50.106;10.996;2023-07-08T05:50:51;99008.63;;;18.24;50.17
77381;BME280;66439;50.106;10.996;2023-07-08T05:52:54;99012.30;;;18.29;50.33
77381;BME280;66439;50.106;10.996;2023-07-08T05:54:56;99011.42;;;18.36;50.26
77381;BME280;66439;50.106;10.996;2023-07-08T05:56:59;99008.56;;;18.40;50.41
77381;BME280;66439;50.106;10.996;2023-07-08T05:59:02;99010.53;;;18.47;50.44
77381;BME280;66439;50.106;10.996;2023-07-08T06:01:06;99008.06;;;18.53;50.28
77381;BME280;66439;50.106;10.996;2023-07-08T06:03:10;99006.17;;;18.57;50.32
77381;BME280;66439;50.106;10.996;2023-07-08T06:05:14;99007.67;;;18.61;50.07
77381;BME280;66439;50.106;10.996;2023-07-08T06:07:17;99016.67;;;18.65;49.96
77381;BME280;66439;50.106;10.996;2023-07-08T06:09:20;99019.28;;;18.71;50.02
77381;BME280;66439;50.106;10.996;2023-07-08T06:11:23;99024.40;;;18.79;49.61
77381;BME280;66439;50.106;10.996;2023-07-08T06:13:26;99021.38;;;18.84;49.27
77381;BME280;66439;50.106;10.996;2023-07-08T06:15:30;99021.35;;;18.89;49.34
77381;BME280;66439;50.106;10.996;2023-07-08T06:17:33;99020.88;;;18.96;49.12
77381;BME280;66439;50.106;10.996;2023-07-08T06:19:35;99018.34;;;19.03;48.86
77381;BME280;66439;50.106;10.996;2023-07-08T06:21:38;99009.95;;;19.09;48.90
77381;BME280;66439;50.106;10.996;2023-07-08T06:23:41;99008.97;;;19.15;48.35
77381;BME280;66439;50.106;10.996;2023-07-08T06:25:44;99005.66;;;19.21;48.38
77381;BME280;66439;50.106;10.996;2023-07-08T06:27:47;99004.85;;;19.28;48.01
77381;BME280;66439;50.106;10.996;2023-07-08T06:29:53;99006.42;;;19.35;48.24
77381;BME280;66439;50.106;10.996;2023-07-08T06:31:55;99001.05;;;19.39;48.00
77381;BME280;66439;50.106;10.996;2023-07-08T06:34:00;98999.27;;;19.47;48.06
77381;BME280;66439;50.106;10.996;2023-07-08T06:36:03;99001.69;;;19.55;47.86
77381;BME280;66439;50.106;10.996;2023-07-08T06:38:07;99001.20;;;19.63;47.61
77381;BME280;66439;50.106;10.996;2023-07-08T06:40:10;98996.56;;;19.70;47.60
77381;BME280;66439;50.106;10.996;2023-07-08T06:42:13;98996.77;;;19.77;47.32
77381;BME280;66439;50.106;10.996;2023-07-08T06:44:21;98991.97;;;19.82;47.17
77381;BME280;66439;50.106;10.996;2023-07-08T06:46:24;98992.77;;;19.89;46.96
77381;BME280;66439;50.106;10.996;2023-07-08T06:48:27;98995.66;;;19.98;46.97
77381;BME280;66439;50.106;10.996;2023-07-08T06:50:32;98993.04;;;20.07;46.99
77381;BME280;66439;50.106;10.996;2023-07-08T06:52:37;98990.87;;;20.16;46.94
77381;BME280;66439;50.106;10.996;2023-07-08T06:54:40;98987.33;;;20.25;46.72
77381;BME280;66439;50.106;10.996;2023-07-08T06:56:43;98985.84;;;20.34;46.70
77381;BME280;66439;50.106;10.996;2023-07-08T06:58:45;98987.46;;;20.43;46.64
77381;BME280;66439;50.106;10.996;2023-07-08T07:00:48;98984.02;;;20.51;46.59
77381;BME280;66439;50.106;10.996;2023-07-08T07:02:51;98983.80;;;20.59;46.47
77381;BME280;66439;50.106;10.996;2023-07-08T07:04:54;98983.09;;;20.67;46.28
77381;BME280;66439;50.106;10.996;2023-07-08T07:06:58;98985.36;;;20.76;46.41
77381;BME280;66439;50.106;10.996;2023-07-08T07:09:00;98980.23;;;20.83;46.35
77381;BME280;66439;50.106;10.996;2023-07-08T07:11:03;98986.34;;;20.91;46.20
77381;BME280;66439;50.106;10.996;2023-07-08T07:13:06;98986.48;;;20.97;45.77
77381;BME280;66439;50.106;10.996;2023-07-08T07:15:08;98980.55;;;21.04;45.70
77381;BME280;66439;50.106;10.996;2023-07-08T07:17:11;98981.27;;;21.11;45.66
77381;BME280;66439;50.106;10.996;2023-07-08T07:19:14;98975.92;;;21.18;45.67
77381;BME280;66439;50.106;10.996;2023-07-08T07:21:19;98978.39;;;21.27;45.30
77381;BME280;66439;50.106;10.996;2023-07-08T07:23:23;98985.35;;;21.35;45.29
77381;BME280;66439;50.106;10.996;2023-07-08T07:25:25;98979.91;;;21.42;45.36
77381;BME280;66439;50.106;10.996;2023-07-08T07:27:28;98980.83;;;21.50;45.30
77381;BME280;66439;50.106;10.996;2023-07-08T07:29:46;98984.31;;;21.58;45.02
77381;BME280;66439;50.106;10.996;2023-07-08T07:31:49;98976.76;;;21.67;45.07
77381;BME280;66439;50.106;10.996;2023-07-08T07:33:56;98977.15;;;21.75;45.02
77381;BME280;66439;50.106;10.996;2023-07-08T07:35:59;98981.48;;;21.84;44.94
77381;BME280;66439;50.106;10.996;2023-07-08T07:38:02;98979.84;;;21.94;44.87
77381;BME280;66439;50.106;10.996;2023-07-08T07:40:08;98983.52;;;22.02;44.65
77381;BME280;66439;50.106;10.996;2023-07-08T07:42:18;98980.36;;;22.10;44.42
77381;BME280;66439;50.106;10.996;2023-07-08T07:44:21;98980.29;;;22.18;44.43
77381;BME280;66439;50.106;10.996;2023-07-08T07:46:24;98972.88;;;22.27;44.41
77381;BME280;66439;50.106;10.996;2023-07-08T07:48:27;98968.64;;;22.36;44.27
77381;BME280;66439;50.106;10.996;2023-07-08T07:50:30;98969.60;;;22.45;44.08
77381;BME280;66439;50.106;10.996;2023-07-08T07:52:34;98966.10;;;22.53;44.06
77381;BME280;66439;50.106;10.996;2023-07-08T07:54:40;98970.37;;;22.61;43.77
77381;BME280;66439;50.106;10.996;2023-07-08T07:56:42;98969.20;;;22.68;43.73
77381;BME280;66439;50.106;10.996;2023-07-08T07:58:45;98968.74;;;22.76;43.59
77381;BME280;66439;50.106;10.996;2023-07-08T08:00:48;98972.66;;;22.85;43.58
77381;BME280;66439;50.106;10.996;2023-07-08T08:02:51;98976.56;;;22.93;43.23
77381;BME280;66439;50.106;10.996;2023-07-08T08:04:53;98976.42;;;23.00;42.93
77381;BME280;66439;50.106;10.996;2023-07-08T08:06:56;98973.45;;;23.08;42.81
77381;BME280;66439;50.106;10.996;2023-07-08T08:08:59;98971.19;;;23.17;42.64
77381;BME280;66439;50.106;10.996;2023-07-08T08:11:04;98971.15;;;23.24;42.44
77381;BME280;66439;50.106;10.996;2023-07-08T08:13:08;98976.09;;;23.33;42.46
77381;BME280;66439;50.106;10.996;2023-07-08T08:15:11;98973.19;;;23.42;42.05
77381;BME280;66439;50.106;10.996;2023-07-08T08:17:16;98971.99;;;23.51;41.87
77381;BME280;66439;50.106;10.996;2023-07-08T08:19:19;98974.27;;;23.59;41.14
77381;BME280;66439;50.106;10.996;2023-07-08T08:21:23;98970.58;;;23.66;40.30
77381;BME280;66439;50.106;10.996;2023-07-08T08:23:26;98972.33;;;23.71;40.43
77381;BME280;66439;50.106;10.996;2023-07-08T08:25:28;98970.23;;;23.77;40.40
77381;BME280;66439;50.106;10.996;2023-07-08T08:27:32;98971.18;;;23.82;40.28
77381;BME280;66439;50.106;10.996;2023-07-08T08:29:34;98972.31;;;23.90;40.38
77381;BME280;66439;50.106;10.996;2023-07-08T08:31:38;98971.77;;;23.99;40.22
77381;BME280;66439;50.106;10.996;2023-07-08T08:33:40;98970.11;;;24.07;40.34
77381;BME280;66439;50.106;10.996;2023-07-08T08:35:43;98966.73;;;24.16;39.69
77381;BME280;66439;50.106;10.996;2023-07-08T08:37:46;98969.21;;;24.24;39.23
77381;BME280;66439;50.106;10.996;2023-07-08T08:39:49;98975.36;;;24.31;39.31
77381;BME280;66439;50.106;10.996;2023-07-08T08:41:52;98967.16;;;24.40;38.46
77381;BME280;66439;50.106;10.996;2023-07-08T08:44:00;98970.41;;;24.50;38.23
77381;BME280;66439;50.106;10.996;2023-07-08T08:46:09;98971.96;;;24.59;38.18
77381;BME280;66439;50.106;10.996;2023-07-08T08:48:15;98975.81;;;24.64;38.12
77381;BME280;66439;50.106;10.996;2023-07-08T08:50:39;98972.09;;;24.69;37.91
77381;BME280;66439;50.106;10.996;2023-07-08T08:52:53;98973.13;;;24.76;37.57
77381;BME280;66439;50.106;10.996;2023-07-08T08:54:57;98970.48;;;24.83;37.34
77381;BME280;66439;50.106;10.996;2023-07-08T08:59:27;98975.61;;;24.95;37.16
77381;BME280;66439;50.106;10.996;2023-07-08T09:01:33;98981.00;;;25.04;36.98
77381;BME280;66439;50.106;10.996;2023-07-08T09:05:58;98975.91;;;25.20;36.64
77381;BME280;66439;50.106;10.996;2023-07-08T09:08:16;98974.62;;;25.27;36.39
77381;BME280;66439;50.106;10.996;2023-07-08T09:11:15;98974.11;;;25.33;36.37
77381;BME280;66439;50.106;10.996;2023-07-08T09:13:08;98977.83;;;25.39;36.30
77381;BME280;66439;50.106;10.996;2023-07-08T09:15:15;98979.13;;;25.39;35.79
77381;BME280;66439;50.106;10.996;2023-07-08T09:17:32;98973.79;;;25.44;35.58
77381;BME280;66439;50.106;10.996;2023-07-08T09:19:54;98973.14;;;25.51;35.48
77381;BME280;66439;50.106;10.996;2023-07-08T09:22:25;98971.77;;;25.54;35.57
77381;BME280;66439;50.106;10.996;2023-07-08T09:25:05;98978.66;;;25.59;35.23
77381;BME280;66439;50.106;10.996;2023-07-08T09:27:08;98968.84;;;25.64;34.92
77381;BME280;66439;50.106;10.996;2023-07-08T09:29:13;98966.41;;;25.69;34.93
77381;BME280;66439;50.106;10.996;2023-07-08T09:31:29;98961.64;;;25.74;34.82
77381;BME280;66439;50.106;10.996;2023-07-08T09:33:34;98966.40;;;25.80;34.87
77381;BME280;66439;50.106;10.996;2023-07-08T09:35:44;98963.71;;;25.88;34.19
77381;BME280;66439;50.106;10.996;2023-07-08T09:37:48;98966.30;;;25.95;34.25
77381;BME280;66439;50.106;10.996;2023-07-08T09:39:58;98965.56;;;26.02;33.86
77381;BME280;66439;50.106;10.996;2023-07-08T09:42:06;98960.98;;;26.09;33.38
77381;BME280;66439;50.106;10.996;2023-07-08T09:44:24;98965.21;;;26.14;33.48
77381;BME280;66439;50.106;10.996;2023-07-08T09:46:36;98960.39;;;26.16;33.60
77381;BME280;66439;50.106;10.996;2023-07-08T09:48:40;98962.18;;;26.19;33.31
77381;BME280;66439;50.106;10.996;2023-07-08T09:50:48;98959.88;;;26.23;33.27
77381;BME280;66439;50.106;10.996;2023-07-08T09:52:56;98963.55;;;26.27;33.05
77381;BME280;66439;50.106;10.996;2023-07-08T09:55:11;98961.05;;;26.30;33.25
77381;BME280;66439;50.106;10.996;2023-07-08T09:57:28;98967.90;;;26.33;33.12
77381;BME280;66439;50.106;10.996;2023-07-08T09:59:39;98961.11;;;26.38;32.61
77381;BME280;66439;50.106;10.996;2023-07-08T10:01:47;98963.49;;;26.42;32.64
77381;BME280;66439;50.106;10.996;2023-07-08T10:03:50;98962.11;;;26.50;32.34
77381;BME280;66439;50.106;10.996;2023-07-08T10:05:57;98965.19;;;26.55;32.17
77381;BME280;66439;50.106;10.996;2023-07-08T10:08:13;98965.22;;;26.60;31.98
77381;BME280;66439;50.106;10.996;2023-07-08T10:10:29;98970.11;;;26.63;32.42
77381;BME280;66439;50.106;10.996;2023-07-08T10:12:35;98971.91;;;26.64;32.46
77381;BME280;66439;50.106;10.996;2023-07-08T10:14:41;98967.64;;;26.66;32.34
77381;BME280;66439;50.106;10.996;2023-07-08T10:16:45;98965.65;;;26.69;32.42
77381;BME280;66439;50.106;10.996;2023-07-08T10:18:48;98967.80;;;26.75;32.47
77381;BME280;66439;50.106;10.996;2023-07-08T10:21:06;98966.33;;;26.83;32.41
77381;BME280;66439;50.106;10.996;2023-07-08T10:25:58;98962.38;;;26.93;31.82
77381;BME280;66439;50.106;10.996;2023-07-08T10:28:33;98959.52;;;26.97;31.73
77381;BME280;66439;50.106;10.996;2023-07-08T10:31:00;98955.95;;;26.99;31.78
77381;BME280;66439;50.106;10.996;2023-07-08T10:33:38;98952.01;;;27.01;31.45
77381;BME280;66439;50.106;10.996;2023-07-08T10:36:07;98953.58;;;27.08;31.30
77381;BME280;66439;50.106;10.996;2023-07-08T10:38:28;98953.61;;;27.15;31.40
77381;BME280;66439;50.106;10.996;2023-07-08T10:40:54;98962.27;;;27.23;30.85
77381;BME280;66439;50.106;10.996;2023-07-08T10:43:41;98960.27;;;27.30;29.86
77381;BME280;66439;50.106;10.996;2023-07-08T10:50:15;98959.41;;;27.40;30.71
77381;BME280;66439;50.106;10.996;2023-07-08T10:53:11;98955.42;;;27.45;30.97
77381;BME280;66439;50.106;10.996;2023-07-08T10:55:28;98951.60;;;27.50;29.97
77381;BME280;66439;50.106;10.996;2023-07-08T10:58:13;98945.70;;;27.57;30.03
77381;BME280;66439;50.106;10.996;2023-07-08T11:03:09;98945.51;;;27.65;30.80
77381;BME280;66439;50.106;10.996;2023-07-08T11:05:31;98940.90;;;27.67;30.05
77381;BME280;66439;50.106;10.996;2023-07-08T11:07:52;98938.44;;;27.71;30.10
77381;BME280;66439;50.106;10.996;2023-07-08T11:10:04;98939.70;;;27.78;29.72
77381;BME280;66439;50.106;10.996;2023-07-08T11:12:20;98940.65;;;27.86;29.09
77381;BME280;66439;50.106;10.996;2023-07-08T11:14:42;98937.85;;;27.96;28.88
77381;BME280;66439;50.106;10.996;2023-07-08T11:19:04;98932.94;;;28.09;28.12
77381;BME280;66439;50.106;10.996;2023-07-08T11:21:21;98930.06;;;28.16;28.03